Time;durP1;ratioP1;P1;durP2;ratioP2;P2;SDS_P1;SDS_P2;PMS_P1;PMS_P2;Temp;Humidity;BMP_temperature;BMP_pressure;BME280_temperature;BME280_humidity;BME280_pressure;Samples;Min_cycle;Max_cycle;Signal;HPM_P1;HPM_P2
2022/07/28 00:01:11;;;;;;;6.80;1.97;;;14.40;99.90;;;;;;5088674;28;20259;-51
2022/07/28 00:03:40;;;;;;;5.40;2.07;;;14.40;99.90;;;;;;5091764;28;20254;-51
2022/07/28 00:06:08;;;;;;;6.80;2.40;;;14.40;99.90;;;;;;5078605;28;20266;-51
2022/07/28 00:08:38;;;;;;;7.20;2.17;;;14.40;99.90;;;;;;5084788;28;20279;-50
2022/07/28 00:11:06;;;;;;;5.07;2.00;;;14.40;99.90;;;;;;5052981;28;20213;-51
2022/07/28 00:13:34;;;;;;;4.67;1.73;;;14.40;99.90;;;;;;5074194;28;20225;-50
2022/07/28 00:16:02;;;;;;;5.10;2.20;;;14.30;99.90;;;;;;5066786;28;20208;-51
2022/07/28 00:18:30;;;;;;;4.53;2.07;;;14.30;99.90;;;;;;5060356;28;20800;-52
2022/07/28 00:20:58;;;;;;;7.17;2.13;;;14.30;99.90;;;;;;5071120;28;20205;-51
2022/07/28 00:23:26;;;;;;;4.90;2.20;;;14.40;99.90;;;;;;5072519;28;20208;-52
2022/07/28 00:26:10;;;;;;;5.23;2.20;;;14.40;99.90;;;;;;5067435;28;20201;-51
2022/07/28 00:28:38;;;;;;;3.50;1.90;;;14.30;99.90;;;;;;5064185;28;20205;-50
2022/07/28 00:31:06;;;;;;;2.40;1.80;;;14.30;99.90;;;;;;5072530;28;20205;-51
2022/07/28 00:33:36;;;;;;;4.90;2.10;;;14.20;99.90;;;;;;5072498;28;20232;-51
2022/07/28 00:36:05;;;;;;;4.73;1.77;;;14.30;99.90;;;;;;5072591;28;20282;-51
2022/07/28 00:38:37;;;;;;;8.67;2.17;;;14.30;99.90;;;;;;5072338;28;20392;-52
2022/07/28 00:41:11;;;;;;;3.53;2.03;;;14.30;99.90;;;;;;5072814;28;20209;-52
2022/07/28 00:43:41;;;;;;;4.53;2.20;;;14.30;99.90;;;;;;5063781;28;20209;-52
2022/07/28 00:46:10;;;;;;;3.53;1.90;;;14.30;99.90;;;;;;5067172;28;20629;-52
2022/07/28 00:48:38;;;;;;;4.97;1.77;;;14.30;99.90;;;;;;5072567;28;20205;-51
2022/07/28 00:51:08;;;;;;;5.83;2.00;;;14.30;99.90;;;;;;5072940;28;20213;-50
2022/07/28 00:53:37;;;;;;;4.83;1.90;;;14.30;99.90;;;;;;5058287;28;20232;-51
2022/07/28 00:56:06;;;;;;;4.47;2.10;;;14.30;99.90;;;;;;5072291;28;20747;-51
2022/07/28 00:58:36;;;;;;;8.20;2.20;;;14.30;99.90;;;;;;5071693;28;20228;-51
2022/07/28 01:01:05;;;;;;;3.57;2.10;;;14.30;99.90;;;;;;5071966;28;20271;-51
2022/07/28 01:03:37;;;;;;;6.83;2.20;;;14.30;99.90;;;;;;5073396;28;20213;-52
2022/07/28 01:06:16;;;;;;;3.90;1.90;;;14.30;99.90;;;;;;5071878;28;20278;-51
2022/07/28 01:08:55;;;;;;;5.50;2.30;;;14.20;99.90;;;;;;5085916;28;20209;-51
2022/07/28 01:11:31;;;;;;;4.67;2.10;;;14.20;99.90;;;;;;5071512;28;20283;-52
2022/07/28 01:14:16;;;;;;;7.93;2.37;;;14.10;99.90;;;;;;5071469;28;20803;-51
2022/07/28 01:16:52;;;;;;;7.47;2.40;;;14.10;99.90;;;;;;5071448;28;20256;-51
2022/07/28 01:19:35;;;;;;;4.67;2.37;;;14.10;99.90;;;;;;5058969;28;20205;-51
2022/07/28 01:22:05;;;;;;;6.43;2.13;;;14.10;99.90;;;;;;5070997;28;20200;-52
2022/07/28 01:24:46;;;;;;;8.40;2.30;;;14.10;99.90;;;;;;5071328;28;20791;-51
2022/07/28 01:27:34;;;;;;;6.40;2.40;;;14.10;99.90;;;;;;5071076;28;20646;-51
2022/07/28 01:30:24;;;;;;;5.77;2.40;;;14.10;99.90;;;;;;5063087;28;20578;-51
2022/07/28 01:33:04;;;;;;;9.77;2.10;;;14.10;99.90;;;;;;5057486;28;20704;-51
2022/07/28 01:35:40;;;;;;;5.93;2.00;;;14.20;99.90;;;;;;5071249;28;20241;-52
2022/07/28 01:38:10;;;;;;;5.80;2.00;;;14.10;99.90;;;;;;5070602;28;20738;-52
2022/07/28 01:40:40;;;;;;;3.80;2.00;;;14.10;99.90;;;;;;5071602;28;20240;-51
2022/07/28 01:43:14;;;;;;;5.10;2.07;;;14.10;99.90;;;;;;5071252;28;20655;-51
2022/07/28 01:45:44;;;;;;;6.83;2.47;;;14.10;99.90;;;;;;5070960;28;20213;-51
2022/07/28 01:48:15;;;;;;;6.23;2.30;;;14.10;99.90;;;;;;5071463;28;20293;-51
2022/07/28 01:50:46;;;;;;;8.57;2.40;;;14.10;99.90;;;;;;5070703;28;20225;-51
2022/07/28 01:53:16;;;;;;;3.67;2.10;;;14.10;99.90;;;;;;5057180;28;20630;-51
2022/07/28 01:55:46;;;;;;;4.67;2.20;;;14.00;99.90;;;;;;5071128;28;20212;-51
2022/07/28 01:58:17;;;;;;;6.73;2.20;;;14.10;99.90;;;;;;5071192;28;20283;-51
2022/07/28 02:00:49;;;;;;;4.63;2.10;;;14.10;99.90;;;;;;5070328;28;20730;-51
2022/07/28 02:03:18;;;;;;;5.87;2.33;;;14.10;99.90;;;;;;5070443;28;20635;-51
2022/07/28 02:05:50;;;;;;;5.43;2.20;;;14.10;99.90;;;;;;5070749;28;20275;-51
2022/07/28 02:08:20;;;;;;;3.47;2.03;;;14.10;99.90;;;;;;5070124;28;20583;-51
2022/07/28 02:13:38;;;;;;;8.70;2.30;;;14.10;99.90;;;;;;5069554;28;20228;-51
2022/07/28 02:16:10;;;;;;;5.43;2.30;;;14.10;99.90;;;;;;5070473;28;20678;-51
2022/07/28 02:18:39;;;;;;;5.03;2.23;;;14.00;99.90;;;;;;5056170;28;20260;-50
2022/07/28 02:21:09;;;;;;;5.03;2.10;;;14.10;99.90;;;;;;5070582;28;20213;-50
2022/07/28 02:23:38;;;;;;;6.10;2.27;;;14.00;99.90;;;;;;5070237;28;20240;-51
2022/07/28 02:26:10;;;;;;;4.77;2.17;;;14.00;99.90;;;;;;5070447;28;20231;-50
2022/07/28 02:28:42;;;;;;;7.87;2.10;;;14.00;99.90;;;;;;5070381;28;20255;-51
2022/07/28 02:31:17;;;;;;;5.13;2.20;;;14.00;99.90;;;;;;5056907;28;20201;-51
2022/07/28 02:33:47;;;;;;;3.67;2.03;;;13.90;99.90;;;;;;5070152;28;20832;-51
2022/07/28 02:36:31;;;;;;;5.00;2.20;;;13.90;99.90;;;;;;5070116;28;20201;-51
2022/07/28 02:39:06;;;;;;;4.33;2.13;;;13.90;99.90;;;;;;5069760;28;20674;-51
2022/07/28 02:41:38;;;;;;;5.03;2.33;;;13.80;99.90;;;;;;5069779;28;20212;-50
2022/07/28 02:44:12;;;;;;;5.73;2.63;;;13.80;99.90;;;;;;5070110;28;20247;-51
2022/07/28 02:46:46;;;;;;;4.73;2.30;;;13.70;99.90;;;;;;5069414;28;20338;-51
2022/07/28 02:49:20;;;;;;;5.00;2.37;;;13.70;99.90;;;;;;5070154;28;20293;-51
2022/07/28 02:51:50;;;;;;;4.10;2.33;;;13.60;99.90;;;;;;5069715;28;20204;-51
2022/07/28 02:54:20;;;;;;;4.63;2.43;;;13.70;99.90;;;;;;5072377;28;20224;-51
2022/07/28 02:56:50;;;;;;;5.07;2.30;;;13.60;99.90;;;;;;5069434;28;20233;-51
2022/07/28 02:59:21;;;;;;;5.60;2.20;;;13.50;99.90;;;;;;5069548;28;20212;-50
2022/07/28 03:01:51;;;;;;;4.97;2.40;;;13.50;99.90;;;;;;5069705;28;20259;-51
2022/07/28 03:04:55;;;;;;;8.73;2.53;;;13.50;99.90;;;;;;5069736;28;20197;-50
2022/07/28 03:07:09;;;;;;;4.67;2.40;;;13.50;99.90;;;;;;5057879;28;20240;-51
2022/07/28 03:09:40;;;;;;;5.07;2.50;;;13.40;99.90;;;;;;5069086;28;20216;-51
2022/07/28 03:12:08;;;;;;;4.83;2.47;;;13.40;99.90;;;;;;5069788;28;20219;-51
2022/07/28 03:14:36;;;;;;;7.07;2.47;;;13.30;99.90;;;;;;5069441;28;20259;-51
2022/07/28 03:17:06;;;;;;;4.67;2.67;;;13.30;99.90;;;;;;5066428;28;20221;-51
2022/07/28 03:19:35;;;;;;;8.50;2.60;;;13.30;99.90;;;;;;5058775;28;20570;-51
2022/07/28 03:22:04;;;;;;;7.37;2.50;;;13.30;99.90;;;;;;5068695;28;20209;-51
2022/07/28 03:24:35;;;;;;;9.03;2.50;;;13.30;99.90;;;;;;5068834;28;20247;-52
2022/07/28 03:27:11;;;;;;;6.63;2.60;;;13.30;99.90;;;;;;5069230;28;20236;-52
2022/07/28 03:29:41;;;;;;;6.93;2.70;;;13.20;99.90;;;;;;5069162;28;20608;-51
2022/07/28 03:32:11;;;;;;;5.33;2.47;;;13.20;99.90;;;;;;5068697;28;20232;-51
2022/07/28 03:34:39;;;;;;;7.90;2.40;;;13.20;99.90;;;;;;5069628;28;20225;-51
2022/07/28 03:37:12;;;;;;;7.27;2.37;;;13.20;99.90;;;;;;5069134;28;20262;-51
2022/07/28 03:39:47;;;;;;;6.53;2.63;;;13.10;99.90;;;;;;5070205;28;20256;-51
2022/07/28 03:42:17;;;;;;;5.87;2.20;;;13.10;99.90;;;;;;5069849;28;20591;-52
2022/07/28 03:44:46;;;;;;;5.10;2.43;;;13.10;99.90;;;;;;5069334;28;20200;-51
2022/07/28 03:47:21;;;;;;;3.70;2.30;;;13.10;99.90;;;;;;5068923;28;20224;-51
2022/07/28 03:49:49;;;;;;;6.70;2.40;;;13.10;99.90;;;;;;5069410;28;20204;-51
2022/07/28 03:52:18;;;;;;;5.30;2.50;;;13.00;99.90;;;;;;5068800;28;20670;-52
2022/07/28 03:54:46;;;;;;;9.83;2.90;;;13.00;99.90;;;;;;5067402;28;20294;-51
2022/07/28 03:57:14;;;;;;;6.27;2.40;;;13.00;99.90;;;;;;5069165;28;20371;-51
2022/07/28 03:59:42;;;;;;;7.73;2.90;;;13.00;99.90;;;;;;5068749;28;20749;-52
2022/07/28 04:02:10;;;;;;;8.63;2.37;;;13.00;99.90;;;;;;5069115;28;20205;-52
2022/07/28 04:04:39;;;;;;;5.77;2.50;;;13.00;99.90;;;;;;5068731;28;20209;-52
2022/07/28 04:07:07;;;;;;;6.40;2.70;;;12.90;99.90;;;;;;5087729;28;20247;-52
2022/07/28 04:09:35;;;;;;;7.97;3.17;;;12.90;99.90;;;;;;5088757;28;20226;-51
2022/07/28 04:12:04;;;;;;;5.77;2.17;;;12.90;99.90;;;;;;5089358;28;20233;-51
2022/07/28 04:14:32;;;;;;;9.13;2.63;;;12.90;99.90;;;;;;5088987;28;20208;-51
2022/07/28 04:17:00;;;;;;;8.80;2.90;;;12.90;99.90;;;;;;5084686;28;20643;-52
2022/07/28 04:19:28;;;;;;;5.77;2.50;;;12.90;99.90;;;;;;5057242;28;20267;-52
2022/07/28 04:21:58;;;;;;;4.80;2.77;;;12.90;99.90;;;;;;5068375;28;20208;-51
2022/07/28 04:24:26;;;;;;;8.77;2.63;;;12.90;99.90;;;;;;5068718;28;20880;-51
2022/07/28 04:26:56;;;;;;;8.30;2.60;;;13.10;99.90;;;;;;5068611;28;20274;-51
2022/07/28 04:29:24;;;;;;;5.83;2.77;;;13.60;99.90;;;;;;5068542;28;20618;-51
2022/07/28 04:31:54;;;;;;;5.13;2.40;;;13.90;99.90;;;;;;5068883;28;20236;-52
2022/07/28 04:34:23;;;;;;;5.43;2.37;;;14.50;99.90;;;;;;5068208;28;20296;-52
2022/07/28 04:36:51;;;;;;;5.60;2.60;;;15.10;99.90;;;;;;5070809;28;20679;-51
2022/07/28 04:39:23;;;;;;;4.87;2.50;;;15.60;99.90;;;;;;5071734;28;20624;-51
2022/07/28 04:41:51;;;;;;;5.40;2.65;;;15.10;99.90;;;;;;5072803;28;20201;-51
2022/07/28 04:44:19;;;;;;;6.03;2.65;;;15.50;99.90;;;;;;5072089;28;20209;-51
2022/07/28 04:46:47;;;;;;;4.80;2.25;;;16.10;99.90;;;;;;5071994;28;20220;-52
2022/07/28 04:49:16;;;;;;;11.30;4.10;;;16.70;99.90;;;;;;5072414;28;20209;-51
2022/07/28 04:51:48;;;;;;;259.40;176.98;;;17.40;99.90;;;;;;5071893;28;20263;-52
2022/07/28 04:54:16;;;;;;;105.38;74.55;;;17.90;99.90;;;;;;5072144;28;20213;-52
2022/07/28 04:56:52;;;;;;;24.00;16.42;;;18.40;99.90;;;;;;5071969;28;20363;-52
2022/07/28 04:59:20;;;;;;;7.28;3.35;;;18.20;99.90;;;;;;5071895;28;20212;-51
2022/07/28 05:01:48;;;;;;;6.90;3.08;;;18.20;99.90;;;;;;5078480;28;20205;-52
2022/07/28 05:04:17;;;;;;;4.70;2.40;;;18.50;99.90;;;;;;5071602;28;20581;-52
2022/07/28 05:06:46;;;;;;;4.55;2.88;;;18.90;99.90;;;;;;5070959;28;20237;-51
2022/07/28 05:09:14;;;;;;;6.28;2.30;;;19.20;99.90;;;;;;5071799;28;20213;-52
2022/07/28 05:11:42;;;;;;;6.53;2.38;;;19.60;99.90;;;;;;5071652;28;20209;-52
2022/07/28 05:14:11;;;;;;;7.70;2.28;;;19.80;99.90;;;;;;5071493;28;20634;-52
2022/07/28 05:16:40;;;;;;;5.97;2.40;;;20.20;99.90;;;;;;5071832;28;20338;-52
2022/07/28 05:19:09;;;;;;;8.30;2.63;;;20.40;99.90;;;;;;5062500;28;20613;-52
2022/07/28 05:21:37;;;;;;;3.15;2.08;;;20.80;99.90;;;;;;5069374;28;20259;-51
2022/07/28 05:24:06;;;;;;;5.68;4.10;;;21.10;99.90;;;;;;5071073;28;20255;-51
2022/07/28 05:26:34;;;;;;;6.40;2.50;;;21.40;99.90;;;;;;5070739;28;20232;-52
2022/07/28 05:29:03;;;;;;;6.50;2.60;;;21.90;99.90;;;;;;5067614;28;20274;-51
2022/07/28 05:31:32;;;;;;;6.43;2.47;;;22.00;99.90;;;;;;5076637;28;20208;-52
2022/07/28 05:34:00;;;;;;;5.82;2.05;;;21.70;99.90;;;;;;5091421;28;20696;-52
2022/07/28 05:36:28;;;;;;;7.38;4.20;;;21.90;99.90;;;;;;5088445;28;20216;-51
2022/07/28 05:38:56;;;;;;;7.18;4.57;;;21.80;99.90;;;;;;5090721;28;20665;-51
2022/07/28 05:41:24;;;;;;;3.97;2.00;;;22.10;99.90;;;;;;5071126;28;20209;-51
2022/07/28 05:43:52;;;;;;;5.28;2.05;;;22.30;99.90;;;;;;5084017;28;20574;-51
2022/07/28 05:46:21;;;;;;;9.68;2.30;;;22.60;99.90;;;;;;5085726;28;20204;-51
2022/07/28 05:48:51;;;;;;;5.85;2.30;;;22.80;99.90;;;;;;5089856;28;20211;-52
2022/07/28 05:51:19;;;;;;;5.93;2.28;;;23.00;99.90;;;;;;5090694;28;20196;-52
2022/07/28 05:53:47;;;;;;;4.25;1.75;;;23.20;99.90;;;;;;5090959;28;20285;-52
2022/07/28 05:56:15;;;;;;;3.53;1.90;;;23.10;98.50;;;;;;5091564;28;20228;-52
2022/07/28 05:58:44;;;;;;;9.48;2.30;;;23.50;98.20;;;;;;5090943;28;20208;-52
2022/07/28 06:01:12;;;;;;;5.88;2.08;;;23.40;97.60;;;;;;5087291;28;20262;-52
2022/07/28 06:03:40;;;;;;;4.05;1.92;;;23.50;98.20;;;;;;5090877;28;20231;-52
2022/07/28 06:06:11;;;;;;;4.72;2.17;;;23.50;97.80;;;;;;5090718;28;20201;-51
2022/07/28 06:08:44;;;;;;;4.90;2.20;;;23.80;98.30;;;;;;5077571;28;20259;-52
2022/07/28 06:11:12;;;;;;;3.75;2.10;;;23.80;97.30;;;;;;5090939;28;20208;-51
2022/07/28 06:13:50;;;;;;;4.88;1.90;;;23.70;96.90;;;;;;5090698;28;20207;-51
2022/07/28 06:16:19;;;;;;;7.28;2.10;;;23.80;97.10;;;;;;5090102;28;20700;-51
2022/07/28 06:18:48;;;;;;;4.32;2.17;;;24.20;97.00;;;;;;5066071;28;20251;-52
2022/07/28 06:21:17;;;;;;;4.47;1.80;;;24.40;96.90;;;;;;5070036;28;20213;-52
2022/07/28 06:23:45;;;;;;;4.72;2.30;;;24.50;96.50;;;;;;5070067;28;21076;-51
2022/07/28 06:26:13;;;;;;;4.30;2.10;;;24.60;94.70;;;;;;5070724;28;20205;-52
2022/07/28 06:28:41;;;;;;;7.97;2.25;;;24.60;94.40;;;;;;5069894;28;20983;-52
2022/07/28 06:31:09;;;;;;;5.07;2.10;;;24.60;94.10;;;;;;5070221;28;20277;-52
2022/07/28 06:33:37;;;;;;;5.03;2.00;;;24.40;94.70;;;;;;5069873;28;20287;-52
2022/07/28 06:36:06;;;;;;;3.42;2.08;;;24.20;95.20;;;;;;5074772;28;20236;-51
2022/07/28 06:38:36;;;;;;;8.65;2.45;;;24.40;94.80;;;;;;5070911;28;20664;-52
2022/07/28 06:41:04;;;;;;;6.03;1.98;;;24.40;94.30;;;;;;5090375;28;20216;-52
2022/07/28 06:43:32;;;;;;;4.72;1.98;;;24.70;93.60;;;;;;5090072;28;20207;-52
2022/07/28 06:46:05;;;;;;;5.43;2.38;;;24.60;93.70;;;;;;5081940;28;20197;-51
2022/07/28 06:48:36;;;;;;;7.40;2.20;;;24.80;93.10;;;;;;5082797;28;20692;-52
2022/07/28 06:51:04;;;;;;;6.97;2.17;;;24.90;93.10;;;;;;5081298;28;20235;-51
2022/07/28 06:53:33;;;;;;;4.57;1.90;;;24.80;93.10;;;;;;5089585;28;20204;-51
2022/07/28 06:56:04;;;;;;;4.75;2.15;;;24.80;93.30;;;;;;5089759;28;20239;-52
2022/07/28 06:58:33;;;;;;;5.57;2.10;;;25.10;92.80;;;;;;5070324;28;20624;-51
2022/07/28 07:01:06;;;;;;;4.05;2.00;;;25.00;93.10;;;;;;5086775;28;20209;-51
2022/07/28 07:03:34;;;;;;;7.10;1.98;;;25.30;92.90;;;;;;5085863;28;20209;-51
2022/07/28 07:06:02;;;;;;;5.30;2.05;;;25.20;93.00;;;;;;5090117;28;20261;-56
2022/07/28 07:08:30;;;;;;;6.18;2.15;;;25.50;93.00;;;;;;5078120;28;20240;-52
2022/07/28 07:10:58;;;;;;;10.13;2.17;;;25.50;92.50;;;;;;5090273;28;20239;-52
2022/07/28 07:13:28;;;;;;;4.18;1.88;;;25.60;92.50;;;;;;5090067;28;20212;-51
2022/07/28 07:15:56;;;;;;;5.38;2.28;;;25.80;92.80;;;;;;5088478;28;20273;-52
2022/07/28 07:18:25;;;;;;;4.43;2.10;;;25.80;92.30;;;;;;5068281;28;20286;-52
2022/07/28 07:20:53;;;;;;;6.40;2.10;;;25.70;92.30;;;;;;5069581;28;20279;-52
2022/07/28 07:23:22;;;;;;;5.57;2.05;;;25.90;91.30;;;;;;5069377;28;20692;-52
2022/07/28 07:25:50;;;;;;;3.42;1.90;;;25.80;91.50;;;;;;5069239;28;20201;-52
2022/07/28 07:28:18;;;;;;;9.18;2.30;;;25.70;91.10;;;;;;5068971;28;20228;-52
2022/07/28 07:30:48;;;;;;;3.90;1.90;;;25.40;91.00;;;;;;5068672;28;20201;-52
2022/07/28 07:33:16;;;;;;;5.28;2.10;;;25.70;91.80;;;;;;5069355;28;20677;-53
2022/07/28 07:35:44;;;;;;;4.30;1.95;;;25.50;91.10;;;;;;5066248;28;20262;-52
2022/07/28 07:38:12;;;;;;;4.35;2.00;;;25.40;91.50;;;;;;5062480;28;20235;-52
2022/07/28 07:40:40;;;;;;;5.70;1.80;;;25.70;91.60;;;;;;5063791;28;20258;-52
2022/07/28 07:43:08;;;;;;;3.00;1.80;;;25.70;90.70;;;;;;5069025;28;20731;-51
2022/07/28 07:45:36;;;;;;;4.43;2.17;;;25.80;91.00;;;;;;5069050;28;20201;-52
2022/07/28 07:48:06;;;;;;;6.38;2.42;;;25.50;90.50;;;;;;5068097;28;20267;-52
2022/07/28 07:50:35;;;;;;;3.47;1.73;;;25.30;90.10;;;;;;5065228;28;20281;-53
2022/07/28 07:53:03;;;;;;;4.50;1.70;;;25.40;91.30;;;;;;5061408;28;20251;-52
2022/07/28 07:55:31;;;;;;;5.35;2.40;;;25.40;90.60;;;;;;5066375;28;20232;-52
2022/07/28 07:58:05;;;;;;;6.18;1.85;;;25.40;90.80;;;;;;5078491;28;20318;-52
2022/07/28 08:00:33;;;;;;;6.22;2.25;;;25.30;90.60;;;;;;5088797;28;20199;-52
2022/07/28 08:03:01;;;;;;;7.10;2.15;;;25.30;90.70;;;;;;5070262;28;20208;-52
2022/07/28 08:05:31;;;;;;;4.57;1.95;;;25.40;90.60;;;;;;5088737;28;20204;-51
2022/07/28 08:08:03;;;;;;;5.53;1.90;;;25.40;91.80;;;;;;5088979;28;20232;-51
2022/07/28 08:10:32;;;;;;;3.65;2.05;;;25.40;91.10;;;;;;5069478;28;20201;-51
2022/07/28 08:13:00;;;;;;;8.40;2.00;;;25.30;90.10;;;;;;5085780;28;20212;-52
2022/07/28 08:15:28;;;;;;;4.10;2.10;;;24.70;91.00;;;;;;5092494;28;20213;-51
2022/07/28 08:17:56;;;;;;;7.10;2.25;;;24.30;91.30;;;;;;5075895;28;20229;-52
2022/07/28 08:20:24;;;;;;;6.00;2.30;;;24.10;91.50;;;;;;5072399;28;20209;-52
2022/07/28 08:22:55;;;;;;;5.82;2.30;;;23.90;91.40;;;;;;5072760;28;20209;-51
2022/07/28 08:25:24;;;;;;;4.97;2.22;;;23.70;92.20;;;;;;5072798;28;20259;-51
2022/07/28 08:27:52;;;;;;;3.72;1.90;;;23.50;92.80;;;;;;5076637;28;20270;-52
2022/07/28 08:30:22;;;;;;;8.32;2.65;;;23.60;92.60;;;;;;5072943;28;20201;-51
2022/07/28 08:32:58;;;;;;;4.53;2.05;;;23.70;94.50;;;;;;5072620;28;20303;-52
2022/07/28 08:35:26;;;;;;;5.70;1.70;;;24.00;93.50;;;;;;5072456;28;20212;-52
2022/07/28 08:38:05;;;;;;;4.85;2.10;;;24.00;93.10;;;;;;5058709;28;20263;-52
2022/07/28 08:40:35;;;;;;;5.68;2.30;;;23.90;93.90;;;;;;5072424;28;20255;-52
2022/07/28 08:43:13;;;;;;;5.72;2.45;;;23.90;93.00;;;;;;5072527;28;20258;-52
2022/07/28 08:45:44;;;;;;;4.10;2.03;;;24.00;93.60;;;;;;5076412;28;20623;-51
2022/07/28 08:48:14;;;;;;;6.05;2.17;;;24.00;92.20;;;;;;5072341;28;20291;-51
2022/07/28 08:50:44;;;;;;;5.00;1.83;;;23.80;92.30;;;;;;5065021;28;20205;-51
2022/07/28 08:53:14;;;;;;;4.38;2.10;;;23.60;92.40;;;;;;5057720;28;20262;-51
2022/07/28 08:55:43;;;;;;;2.25;1.70;;;23.50;92.40;;;;;;5071857;28;20240;-51
2022/07/28 08:58:12;;;;;;;3.35;2.00;;;23.40;92.30;;;;;;5071578;28;20283;-51
2022/07/28 09:00:41;;;;;;;4.35;1.92;;;23.50;93.70;;;;;;5071728;28;20275;-51
2022/07/28 09:03:11;;;;;;;3.72;1.83;;;23.50;93.30;;;;;;5069766;28;20201;-51
2022/07/28 09:05:42;;;;;;;3.47;1.80;;;23.60;92.20;;;;;;5071747;28;20212;-51
2022/07/28 09:08:11;;;;;;;8.30;2.13;;;23.50;92.90;;;;;;5070724;28;20229;-51
2022/07/28 09:10:40;;;;;;;3.08;1.95;;;23.60;93.70;;;;;;5071522;28;20219;-51
2022/07/28 09:13:09;;;;;;;5.43;2.00;;;23.70;93.80;;;;;;5072044;28;20592;-51
2022/07/28 09:15:40;;;;;;;7.38;2.00;;;23.70;92.80;;;;;;5071835;28;20204;-51
2022/07/28 09:18:08;;;;;;;5.88;2.10;;;23.60;92.90;;;;;;5063385;28;20724;-51
2022/07/28 09:20:37;;;;;;;7.47;1.85;;;23.50;93.10;;;;;;5070594;28;20264;-51
2022/07/28 09:23:07;;;;;;;4.05;2.10;;;23.60;93.60;;;;;;5068912;28;20624;-51
2022/07/28 09:26:07;;;;;;;4.55;1.95;;;23.50;93.30;;;;;;5071516;28;20284;-51
2022/07/28 09:28:48;;;;;;;3.28;1.60;;;23.60;92.90;;;;;;5063161;28;20224;-51
2022/07/28 09:31:16;;;;;;;4.95;2.05;;;23.80;94.00;;;;;;5058647;28;20204;-51
2022/07/28 09:33:54;;;;;;;3.33;1.70;;;23.80;92.90;;;;;;5071048;28;20208;-51
2022/07/28 09:36:22;;;;;;;2.65;2.10;;;23.70;93.50;;;;;;5058711;28;20624;-50
2022/07/28 09:38:50;;;;;;;7.82;2.15;;;23.90;93.60;;;;;;5071071;28;20224;-52
2022/07/28 09:41:21;;;;;;;5.35;2.03;;;23.90;93.70;;;;;;5066057;28;20259;-51
2022/07/28 09:43:50;;;;;;;6.03;2.33;;;24.00;94.00;;;;;;5071502;28;20201;-51
2022/07/28 09:46:24;;;;;;;5.82;1.92;;;24.10;94.20;;;;;;5065816;28;20775;-51
2022/07/28 09:48:55;;;;;;;6.78;1.98;;;24.00;93.10;;;;;;5071367;28;20201;-52
2022/07/28 09:51:26;;;;;;;6.72;1.92;;;24.10;93.20;;;;;;5071089;28;20666;-52
2022/07/28 09:54:06;;;;;;;4.20;1.80;;;24.20;93.40;;;;;;5071021;28;20685;-52
2022/07/28 09:56:37;;;;;;;4.25;1.80;;;24.10;92.10;;;;;;5070667;28;20267;-52
2022/07/28 09:59:06;;;;;;;4.40;2.10;;;24.00;92.10;;;;;;5071092;28;20585;-52
2022/07/28 10:01:51;;;;;;;3.95;1.90;;;23.90;93.20;;;;;;5070987;28;20271;-51
2022/07/28 10:04:30;;;;;;;5.07;1.90;;;24.10;93.90;;;;;;5071470;28;20201;-51
2022/07/28 10:07:02;;;;;;;3.83;1.85;;;24.20;92.90;;;;;;5058083;28;20259;-52
2022/07/28 10:09:30;;;;;;;3.17;1.67;;;24.00;92.40;;;;;;5064709;28;20205;-51
2022/07/28 10:12:16;;;;;;;4.20;2.15;;;24.00;92.80;;;;;;5070879;28;20208;-51
2022/07/28 10:14:46;;;;;;;4.20;2.00;;;24.00;92.20;;;;;;5063522;28;20197;-51
2022/07/28 10:17:25;;;;;;;5.97;1.90;;;23.80;91.30;;;;;;5069336;28;20220;-51
2022/07/28 10:19:56;;;;;;;4.50;1.80;;;23.80;91.50;;;;;;5057933;28;20221;-52
2022/07/28 10:22:27;;;;;;;5.38;2.10;;;23.70;91.50;;;;;;5069655;28;20609;-52
2022/07/28 10:24:58;;;;;;;3.92;1.52;;;23.80;92.10;;;;;;5070367;28;20739;-51
2022/07/28 10:27:28;;;;;;;3.17;1.90;;;23.90;92.30;;;;;;5070200;28;20224;-51
2022/07/28 10:29:58;;;;;;;4.47;1.88;;;23.80;90.80;;;;;;5070745;28;20205;-51
2022/07/28 10:32:28;;;;;;;6.28;2.05;;;23.80;92.00;;;;;;5069767;28;20284;-52
2022/07/28 10:35:03;;;;;;;6.05;2.00;;;23.90;92.30;;;;;;5069559;28;20209;-52
2022/07/28 10:37:34;;;;;;;4.57;2.00;;;24.10;91.90;;;;;;5070040;28;20287;-52
2022/07/28 10:40:05;;;;;;;5.55;2.10;;;24.10;91.20;;;;;;5070121;28;20645;-52
2022/07/28 10:42:40;;;;;;;7.35;1.90;;;24.00;90.50;;;;;;5073031;28;20295;-51
2022/07/28 10:45:10;;;;;;;3.92;1.67;;;24.10;91.60;;;;;;5073875;28;20239;-51
2022/07/28 10:47:38;;;;;;;7.53;2.42;;;24.10;92.00;;;;;;5074715;28;20270;-51
2022/07/28 10:50:07;;;;;;;5.53;2.10;;;24.10;91.00;;;;;;5070528;28;20262;-51
2022/07/28 10:52:37;;;;;;;4.57;1.77;;;24.10;91.20;;;;;;5069430;28;20216;-51
2022/07/28 10:55:23;;;;;;;4.60;2.00;;;24.10;91.00;;;;;;5070077;28;20291;-51
2022/07/28 10:58:07;;;;;;;6.45;1.88;;;24.10;91.80;;;;;;5069865;28;20289;-52
2022/07/28 11:00:46;;;;;;;3.88;1.80;;;24.10;92.20;;;;;;5069838;28;20209;-52
2022/07/28 11:03:42;;;;;;;4.03;2.03;;;24.30;91.70;;;;;;5055166;28;20673;-51
2022/07/28 11:06:28;;;;;;;5.05;2.08;;;24.20;91.40;;;;;;5070146;28;20204;-52
2022/07/28 11:08:58;;;;;;;4.53;1.95;;;24.20;92.00;;;;;;5069355;28;20204;-52
2022/07/28 11:11:46;;;;;;;4.47;1.85;;;24.00;90.80;;;;;;5069123;28;20212;-52
2022/07/28 11:14:37;;;;;;;4.88;1.77;;;23.90;91.20;;;;;;5069309;28;20315;-52
2022/07/28 11:17:17;;;;;;;4.05;2.08;;;23.90;93.30;;;;;;5066563;28;20229;-51
2022/07/28 11:20:00;;;;;;;3.72;1.88;;;23.90;91.70;;;;;;5054306;28;20279;-51
2022/07/28 11:22:50;;;;;;;2.83;2.00;;;24.00;92.00;;;;;;5069397;28;20286;-52
2022/07/28 11:25:19;;;;;;;5.55;2.00;;;24.00;91.90;;;;;;5069160;28;20756;-52
2022/07/28 11:28:04;;;;;;;3.47;2.08;;;24.20;91.70;;;;;;5069849;28;20224;-52
2022/07/28 11:30:53;;;;;;;3.80;1.80;;;24.30;92.10;;;;;;5068508;28;20209;-52
2022/07/28 11:33:23;;;;;;;3.55;1.90;;;24.30;92.00;;;;;;5069473;28;20614;-51
2022/07/28 11:35:57;;;;;;;5.85;2.10;;;24.30;91.20;;;;;;5069451;28;20208;-51
2022/07/28 11:38:26;;;;;;;4.05;1.88;;;24.20;91.40;;;;;;5068828;28;20290;-52
2022/07/28 11:40:56;;;;;;;6.32;2.15;;;24.30;91.20;;;;;;5068881;28;20266;-51
2022/07/28 11:43:34;;;;;;;6.90;2.45;;;24.20;92.00;;;;;;5089319;28;20265;-52
2022/07/28 11:46:35;;;;;;;3.75;1.90;;;24.30;92.80;;;;;;5088371;28;20676;-51
2022/07/28 11:49:27;;;;;;;5.00;2.15;;;24.50;91.80;;;;;;5082603;28;20209;-51
2022/07/28 11:52:17;;;;;;;3.90;1.90;;;24.60;91.30;;;;;;5071122;28;20270;-52
2022/07/28 11:54:52;;;;;;;9.40;2.15;;;24.50;91.30;;;;;;5087628;28;20673;-51
2022/07/28 11:57:24;;;;;;;8.02;1.98;;;24.50;91.70;;;;;;5089236;28;20224;-51
2022/07/28 12:00:01;;;;;;;7.35;2.40;;;24.60;91.20;;;;;;5088520;28;20223;-51
2022/07/28 12:02:32;;;;;;;4.70;2.08;;;24.60;91.00;;;;;;5088760;28;21008;-51
2022/07/28 12:05:13;;;;;;;3.28;1.60;;;24.60;90.50;;;;;;5072458;28;20208;-52
2022/07/28 12:07:46;;;;;;;5.85;2.13;;;24.70;90.10;;;;;;5088037;28;20243;-51
2022/07/28 12:10:33;;;;;;;5.55;2.25;;;24.70;90.10;;;;;;5097083;28;20637;-52
2022/07/28 12:13:27;;;;;;;6.70;1.92;;;24.80;91.10;;;;;;5108947;28;20244;-52
2022/07/28 12:15:55;;;;;;;5.38;2.10;;;24.80;90.50;;;;;;5108991;28;20203;-51
2022/07/28 12:18:25;;;;;;;4.03;1.90;;;24.80;90.10;;;;;;5081531;28;20311;-52
2022/07/28 12:20:53;;;;;;;6.22;2.30;;;24.90;90.50;;;;;;5083502;28;20716;-52
2022/07/28 12:23:30;;;;;;;4.05;2.08;;;25.00;91.30;;;;;;5082028;28;20295;-52
2022/07/28 12:26:28;;;;;;;3.65;1.90;;;25.00;90.30;;;;;;5076085;28;20196;-51
2022/07/28 12:28:58;;;;;;;3.97;1.98;;;25.10;90.50;;;;;;5088313;28;20261;-52
2022/07/28 12:31:31;;;;;;;3.78;1.65;;;25.10;90.00;;;;;;5088752;28;20663;-51
2022/07/28 12:34:04;;;;;;;4.65;1.70;;;25.20;90.90;;;;;;5087573;28;20204;-51
2022/07/28 12:36:34;;;;;;;7.05;2.00;;;25.20;90.40;;;;;;5088202;28;20213;-52
2022/07/28 12:39:04;;;;;;;6.20;2.10;;;25.20;88.40;;;;;;5087660;28;20208;-51
2022/07/28 12:41:39;;;;;;;3.90;1.95;;;25.20;90.10;;;;;;5088874;28;20579;-51
2022/07/28 12:44:07;;;;;;;5.88;1.95;;;25.20;87.00;;;;;;5088230;28;20208;-51
2022/07/28 12:46:35;;;;;;;4.53;2.13;;;25.10;86.20;;;;;;5087398;28;20266;-52
2022/07/28 12:49:18;;;;;;;4.05;1.83;;;25.00;86.40;;;;;;5088015;28;20212;-52
2022/07/28 12:51:46;;;;;;;3.13;1.83;;;25.00;88.20;;;;;;5076620;28;20701;-51
2022/07/28 12:54:15;;;;;;;5.68;1.90;;;25.20;90.00;;;;;;5088114;28;20208;-51
2022/07/28 12:56:46;;;;;;;5.75;1.90;;;25.30;86.50;;;;;;5088397;28;20236;-51
2022/07/28 12:59:14;;;;;;;7.78;1.73;;;25.20;86.60;;;;;;5091953;28;20677;-51
2022/07/28 13:01:50;;;;;;;5.05;1.92;;;25.20;86.50;;;;;;5080384;28;20276;-52
2022/07/28 13:04:40;;;;;;;4.22;2.13;;;25.10;86.90;;;;;;5092240;28;20207;-52
2022/07/28 13:07:12;;;;;;;7.18;1.88;;;25.00;87.10;;;;;;5078944;28;20242;-52
2022/07/28 13:09:44;;;;;;;4.10;1.80;;;25.20;85.90;;;;;;5090865;28;20258;-51
2022/07/28 13:12:18;;;;;;;4.50;2.00;;;25.20;87.60;;;;;;5092237;28;20215;-51